Time;durP1;ratioP1;P1;durP2;ratioP2;P2;SDS_P1;SDS_P2;PMS_P1;PMS_P2;Temp;Humidity;BMP_temperature;BMP_pressure;BME280_temperature;BME280_humidity;BME280_pressure;Samples;Min_cycle;Max_cycle;Signal;HPM_P1;HPM_P2
2022/04/30 00:01:46;;;;;;;17.00;7.20;;;;;;;8.48;60.97;101398.09;709577;1183;114924;-72
2022/04/30 00:16:50;;;;;;;15.75;7.03;;;;;;;8.22;61.64;101390.97;709661;1182;115475;-73
2022/04/30 00:31:55;;;;;;;45.70;10.90;;;;;;;7.86;62.94;101389.64;709296;1183;114993;-73
2022/04/30 00:46:59;;;;;;;38.20;11.20;;;;;;;7.82;63.34;101392.41;709366;1184;115661;-72
2022/04/30 01:02:03;;;;;;;20.70;8.30;;;;;;;7.59;63.40;101393.77;709375;1182;115182;-74
2022/04/30 01:17:09;;;;;;;18.50;7.65;;;;;;;7.36;64.10;101389.85;709487;1184;114076;-73
2022/04/30 01:47:38;;;;;;;33.25;10.05;;;;;;;7.19;66.16;101400.41;709754;1183;114634;-73
2022/04/30 02:02:48;;;;;;;31.40;9.60;;;;;;;6.91;67.75;101389.73;709604;1182;115388;-73
2022/04/30 02:17:52;;;;;;;76.10;26.00;;;;;;;6.46;68.22;101383.48;721495;1184;115521;-73
2022/04/30 02:33:03;;;;;;;79.47;22.17;;;;;;;6.33;68.46;101381.54;709299;1181;115616;-73
2022/04/30 02:48:09;;;;;;;409.65;78.55;;;;;;;6.07;69.06;101374.22;709582;1181;114324;-74
2022/04/30 03:03:14;;;;;;;55.70;16.75;;;;;;;5.99;68.02;101372.87;709280;1184;115655;-74
2022/04/30 03:33:48;;;;;;;55.20;20.60;;;;;;;5.77;69.02;101361.84;709884;1181;115724;-73
2022/04/30 03:48:53;;;;;;;50.60;18.90;;;;;;;5.73;69.05;101363.75;709670;1184;115874;-72
2022/04/30 04:04:00;;;;;;;55.00;19.90;;;;;;;5.80;68.94;101367.70;709368;1183;115747;-73
2022/04/30 04:19:04;;;;;;;43.40;16.00;;;;;;;6.08;69.00;101368.92;709183;1184;114118;-75
2022/04/30 04:34:08;;;;;;;21.10;9.60;;;;;;;6.60;68.80;101377.55;709298;1183;115822;-74
2022/04/30 04:49:11;;;;;;;18.15;8.08;;;;;;;7.11;69.13;101372.99;709260;1184;115464;-77
2022/04/30 05:04:16;;;;;;;14.40;7.25;;;;;;;7.65;69.99;101387.34;709528;1182;115386;-78
2022/04/30 05:19:20;;;;;;;15.80;6.25;;;;;;;8.42;69.25;101389.75;710115;1181;115171;-78
2022/04/30 05:34:24;;;;;;;12.35;6.05;;;;;;;8.94;68.42;101378.67;710099;1182;114252;-79
2022/04/30 05:49:27;;;;;;;12.60;6.20;;;;;;;9.60;67.42;101380.56;710345;1182;115504;-77
2022/04/30 06:04:31;;;;;;;15.65;6.45;;;;;;;10.36;67.61;101375.46;710410;1182;113941;-78
2022/04/30 06:19:35;;;;;;;11.60;5.25;;;;;;;11.42;66.26;101373.08;710277;1184;114204;-78
2022/04/30 06:34:39;;;;;;;7.10;4.70;;;;;;;12.40;64.91;101369.18;713788;1183;115769;-77
2022/04/30 06:49:43;;;;;;;9.15;5.30;;;;;;;13.56;64.32;101366.95;710533;1181;114356;-78
2022/04/30 07:04:49;;;;;;;12.80;5.00;;;;;;;14.38;63.16;101363.47;710218;1183;114384;-77
2022/04/30 07:19:53;;;;;;;12.70;4.30;;;;;;;15.61;60.25;101362.23;710790;1182;115088;-78
2022/04/30 07:34:57;;;;;;;6.20;4.40;;;;;;;17.30;57.94;101354.11;710974;1183;114729;-79
2022/04/30 07:50:02;;;;;;;45.40;19.00;;;;;;;18.21;55.17;101347.59;710817;1183;115719;-76
2022/04/30 08:05:06;;;;;;;7.40;3.85;;;;;;;18.66;51.85;101348.23;710557;1182;115340;-74
2022/04/30 08:20:10;;;;;;;7.45;3.60;;;;;;;19.31;49.73;101354.63;712856;1184;115153;-74
2022/04/30 08:35:13;;;;;;;4.80;2.90;;;;;;;20.10;48.57;101346.84;710499;1184;115032;-74
2022/04/30 08:50:41;;;;;;;5.10;3.10;;;;;;;20.27;46.68;101346.77;711215;1175;114316;-73
2022/04/30 09:05:45;;;;;;;8.45;4.10;;;;;;;20.97;46.34;101337.06;711457;1183;114192;-74
2022/04/30 09:20:51;;;;;;;7.00;3.50;;;;;;;21.38;45.31;101323.37;710306;1184;114195;-74
2022/04/30 10:06:49;;;;;;;3.90;2.00;;;;;;;22.35;43.89;101294.05;714849;1181;114216;-75
2022/04/30 10:22:11;;;;;;;34.75;12.30;;;;;;;23.26;42.24;101286.28;710676;1184;115873;-78
2022/04/30 10:37:27;;;;;;;6.10;2.97;;;;;;;22.63;40.99;101274.63;710365;1184;115963;-78
2022/04/30 10:52:30;;;;;;;3.90;2.00;;;;;;;23.20;40.93;101271.02;711401;1176;115155;-78
2022/04/30 11:07:36;;;;;;;3.40;1.80;;;;;;;24.38;40.70;101255.91;710829;1183;115033;-79
2022/04/30 11:22:39;;;;;;;9.70;2.60;;;;;;;24.33;39.57;101243.11;712111;1184;114239;-77
2022/04/30 11:37:44;;;;;;;3.03;1.80;;;;;;;23.84;39.99;101225.44;712299;1181;114699;-77
2022/04/30 11:52:48;;;;;;;3.60;1.67;;;;;;;24.78;38.87;101209.55;710480;1184;114096;-79
2022/04/30 12:08:00;;;;;;;4.57;1.93;;;;;;;24.35;37.58;101183.91;710401;1184;114576;-79
2022/04/30 12:38:31;;;;;;;4.75;1.65;;;;;;;23.97;38.25;101169.23;710091;1183;114813;-78
2022/04/30 12:53:35;;;;;;;7.00;3.00;;;;;;;23.98;37.73;101165.53;709874;1182;116295;-78
2022/04/30 13:24:01;;;;;;;18.35;10.60;;;;;;;23.83;38.48;101146.91;714095;1181;114653;-73
2022/04/30 13:39:05;;;;;;;39.10;31.00;;;;;;;23.36;37.99;101130.70;710067;1183;115491;-73
2022/04/30 13:54:10;;;;;;;7.85;5.70;;;;;;;24.19;37.62;101120.81;710246;1184;115298;-73
2022/04/30 14:09:14;;;;;;;5.80;3.60;;;;;;;23.25;36.78;101107.17;710788;1183;114870;-73
2022/04/30 14:24:17;;;;;;;8.90;4.20;;;;;;;23.88;37.75;101103.45;710228;1181;115392;-73
2022/04/30 14:39:30;;;;;;;3.75;2.70;;;;;;;22.99;37.28;101105.16;710003;1182;115692;-72
2022/04/30 14:54:33;;;;;;;12.85;8.05;;;;;;;21.67;37.49;101086.83;709767;1181;114128;-72
2022/04/30 15:09:40;;;;;;;6.13;2.73;;;;;;;23.69;38.38;101076.42;709622;1182;115986;-71
2022/04/30 15:24:46;;;;;;;5.33;2.83;;;;;;;23.91;37.59;101073.59;709666;1182;115620;-72
2022/04/30 15:39:50;;;;;;;19.60;9.97;;;;;;;22.69;37.53;101079.48;710181;1183;115850;-72
2022/04/30 15:54:54;;;;;;;10.45;3.40;;;;;;;21.57;38.19;101062.28;709755;1182;114343;-77
2022/04/30 16:09:58;;;;;;;4.60;2.60;;;;;;;21.24;38.32;101054.70;711188;1182;114284;-71
2022/04/30 16:25:02;;;;;;;8.50;5.45;;;;;;;20.92;38.59;101040.77;709330;1184;115490;-72
2022/04/30 16:40:07;;;;;;;117.90;47.45;;;;;;;20.50;39.05;101028.88;710033;1182;115700;-72
2022/04/30 17:10:35;;;;;;;21.40;11.20;;;;;;;19.48;40.34;101027.34;710480;1184;114466;-76
2022/04/30 17:25:39;;;;;;;38.15;20.80;;;;;;;18.90;41.58;101044.42;709805;1182;116092;-76
2022/04/30 17:40:43;;;;;;;254.10;112.35;;;;;;;18.32;42.49;101043.70;710091;1181;116321;-76
2022/04/30 17:55:47;;;;;;;44.90;23.60;;;;;;;17.62;42.92;101042.31;710023;1184;115742;-71
2022/04/30 18:10:51;;;;;;;19.85;11.55;;;;;;;16.90;43.34;101046.20;710319;1182;115514;-76
2022/04/30 18:25:56;;;;;;;200.33;59.20;;;;;;;16.42;44.63;101056.33;710407;1182;115647;-77
2022/04/30 18:41:00;;;;;;;71.15;37.75;;;;;;;15.89;45.44;101059.86;709731;1184;115768;-77
2022/04/30 19:11:27;;;;;;;98.50;37.30;;;;;;;15.24;47.50;101066.09;709850;1181;114594;-77
2022/04/30 19:26:32;;;;;;;22.80;9.90;;;;;;;15.20;47.72;101065.54;710159;1181;114439;-73
2022/04/30 19:41:36;;;;;;;195.65;67.45;;;;;;;14.76;48.78;101066.13;710204;1182;117237;-73
2022/04/30 19:56:40;;;;;;;172.95;58.95;;;;;;;14.55;49.31;101071.57;710188;1184;118297;-72
2022/04/30 20:27:07;;;;;;;150.98;52.33;;;;;;;13.86;50.93;101060.23;709516;1182;115244;-73
2022/04/30 20:42:11;;;;;;;184.50;55.00;;;;;;;13.61;51.68;101058.96;709696;1183;116041;-72
2022/04/30 20:57:14;;;;;;;880.15;234.60;;;;;;;13.44;52.63;101057.81;709268;1183;114634;-73
2022/04/30 21:12:18;;;;;;;406.85;103.85;;;;;;;13.35;53.34;101062.05;709511;1183;116229;-73
2022/04/30 21:27:22;;;;;;;221.23;59.90;;;;;;;13.32;53.68;101054.42;708822;1183;116069;-73
2022/04/30 21:42:25;;;;;;;129.35;32.60;;;;;;;13.33;53.36;101056.09;709460;1182;116143;-72
2022/04/30 22:12:57;;;;;;;100.05;25.45;;;;;;;13.25;51.94;101040.95;709204;1184;115357;-73
2022/04/30 22:28:01;;;;;;;20.35;10.05;;;;;;;13.03;52.88;101028.81;709138;1182;115100;-73
2022/04/30 22:43:06;;;;;;;13.50;7.60;;;;;;;12.83;53.36;101033.17;709390;1183;115884;-72
2022/04/30 22:58:10;;;;;;;22.17;8.83;;;;;;;12.77;53.60;101037.14;709017;1183;114502;-73
2022/04/30 23:13:29;;;;;;;20.00;9.20;;;;;;;12.67;53.72;101033.66;709238;1181;115590;-72
2022/04/30 23:28:33;;;;;;;14.10;6.45;;;;;;;12.60;53.83;101020.19;709321;1182;115229;-72
2022/04/30 23:43:37;;;;;;;12.70;6.25;;;;;;;12.47;54.74;101015.13;709192;1183;114622;-73
2022/04/30 23:58:41;;;;;;;15.73;7.53;;;;;;;12.41;55.19;101007.73;709134;1182;115695;-72
